sensor_id;sensor_type;location;lat;lon;timestamp;temperature;humidity
7598;DHT22;3840;59.32098800;18.06423600;2022-12-18T00:01:53;-0.90;99.90
7598;DHT22;3840;59.32098800;18.06423600;2022-12-18T00:04:23;-0.90;99.90
7598;DHT22;3840;59.32098800;18.06423600;2022-12-18T00:06:49;-0.90;99.90
7598;DHT22;3840;59.32098800;18.06423600;2022-12-18T00:09:16;-0.90;99.90
7598;DHT22;3840;59.32098800;18.06423600;2022-12-18T00:11:41;-0.90;99.90
7598;DHT22;3840;59.32098800;18.06423600;2022-12-18T00:14:09;-0.90;99.90
7598;DHT22;3840;59.32098800;18.06423600;2022-12-18T00:16:36;-0.90;99.90
7598;DHT22;3840;59.32098800;18.06423600;2022-12-18T00:19:03;-0.90;99.90
7598;DHT22;3840;59.32098800;18.06423600;2022-12-18T00:21:30;-0.90;99.90
7598;DHT22;3840;59.32098800;18.06423600;2022-12-18T00:23:56;-0.80;99.90
7598;DHT22;3840;59.32098800;18.06423600;2022-12-18T00:26:30;-0.90;99.90
7598;DHT22;3840;59.32098800;18.06423600;2022-12-18T00:29:05;-0.90;99.90
7598;DHT22;3840;59.32098800;18.06423600;2022-12-18T00:31:31;-0.90;99.90
7598;DHT22;3840;59.32098800;18.06423600;2022-12-18T00:33:57;-0.90;99.90
7598;DHT22;3840;59.32098800;18.06423600;2022-12-18T00:36:26;-0.90;99.90
7598;DHT22;3840;59.32098800;18.06423600;2022-12-18T00:38:54;-0.90;99.90
7598;DHT22;3840;59.32098800;18.06423600;2022-12-18T00:41:20;-1.00;99.90
7598;DHT22;3840;59.32098800;18.06423600;2022-12-18T00:44:06;-0.80;99.90
7598;DHT22;3840;59.32098800;18.06423600;2022-12-18T00:46:33;-0.90;99.90
7598;DHT22;3840;59.32098800;18.06423600;2022-12-18T00:48:59;-0.90;99.90
7598;DHT22;3840;59.32098800;18.06423600;2022-12-18T00:51:25;-0.90;99.90
7598;DHT22;3840;59.32098800;18.06423600;2022-12-18T00:53:52;-0.90;99.90
7598;DHT22;3840;59.32098800;18.06423600;2022-12-18T00:56:18;-0.80;99.90
7598;DHT22;3840;59.32098800;18.06423600;2022-12-18T00:58:43;-0.80;99.90
7598;DHT22;3840;59.32098800;18.06423600;2022-12-18T01:01:09;-0.80;99.90
7598;DHT22;3840;59.32098800;18.06423600;2022-12-18T01:03:35;-0.80;99.90
7598;DHT22;3840;59.32098800;18.06423600;2022-12-18T01:06:09;-0.80;99.90
7598;DHT22;3840;59.32098800;18.06423600;2022-12-18T01:08:36;-0.90;99.90
7598;DHT22;3840;59.32098800;18.06423600;2022-12-18T01:11:08;-0.90;99.90
7598;DHT22;3840;59.32098800;18.06423600;2022-12-18T01:13:34;-0.80;99.90
7598;DHT22;3840;59.32098800;18.06423600;2022-12-18T01:16:00;-0.80;99.90
7598;DHT22;3840;59.32098800;18.06423600;2022-12-18T01:18:25;-0.80;99.90
7598;DHT22;3840;59.32098800;18.06423600;2022-12-18T01:20:51;-0.80;99.90
7598;DHT22;3840;59.32098800;18.06423600;2022-12-18T01:23:17;-0.80;99.90
7598;DHT22;3840;59.32098800;18.06423600;2022-12-18T01:25:43;-0.90;99.90
7598;DHT22;3840;59.32098800;18.06423600;2022-12-18T01:28:08;-0.90;99.90
7598;DHT22;3840;59.32098800;18.06423600;2022-12-18T01:30:34;-0.90;99.90
7598;DHT22;3840;59.32098800;18.06423600;2022-12-18T01:33:00;-0.90;99.90
7598;DHT22;3840;59.32098800;18.06423600;2022-12-18T01:35:25;-0.80;99.90
7598;DHT22;3840;59.32098800;18.06423600;2022-12-18T01:37:54;-0.80;99.90
7598;DHT22;3840;59.32098800;18.06423600;2022-12-18T01:40:20;-0.80;99.90
7598;DHT22;3840;59.32098800;18.06423600;2022-12-18T01:42:53;-0.80;99.90
7598;DHT22;3840;59.32098800;18.06423600;2022-12-18T01:45:25;-0.70;99.90
7598;DHT22;3840;59.32098800;18.06423600;2022-12-18T01:47:57;-0.80;99.90
7598;DHT22;3840;59.32098800;18.06423600;2022-12-18T01:50:27;-0.80;99.90
7598;DHT22;3840;59.32098800;18.06423600;2022-12-18T01:52:58;-0.80;99.90
7598;DHT22;3840;59.32098800;18.06423600;2022-12-18T01:55:28;-0.70;99.90
7598;DHT22;3840;59.32098800;18.06423600;2022-12-18T01:57:57;-0.70;99.90
7598;DHT22;3840;59.32098800;18.06423600;2022-12-18T02:00:24;-0.70;99.90
7598;DHT22;3840;59.32098800;18.06423600;2022-12-18T02:02:51;-0.70;99.90
7598;DHT22;3840;59.32098800;18.06423600;2022-12-18T02:05:20;-0.70;99.90
7598;DHT22;3840;59.32098800;18.06423600;2022-12-18T02:18:40;-0.70;99.90
7598;DHT22;3840;59.32098800;18.06423600;2022-12-18T02:21:27;-0.70;99.90
7598;DHT22;3840;59.32098800;18.06423600;2022-12-18T02:26:47;-0.70;99.90
7598;DHT22;3840;59.32098800;18.06423600;2022-12-18T02:29:29;-0.60;99.90
7598;DHT22;3840;59.32098800;18.06423600;2022-12-18T02:32:00;-0.60;99.90
7598;DHT22;3840;59.32098800;18.06423600;2022-12-18T02:34:31;-0.60;99.90
7598;DHT22;3840;59.32098800;18.06423600;2022-12-18T02:37:01;-0.60;99.90
7598;DHT22;3840;59.32098800;18.06423600;2022-12-18T02:39:29;-0.60;99.90
7598;DHT22;3840;59.32098800;18.06423600;2022-12-18T02:41:57;-0.70;99.90
7598;DHT22;3840;59.32098800;18.06423600;2022-12-18T02:44:23;-0.60;99.90
7598;DHT22;3840;59.32098800;18.06423600;2022-12-18T02:46:52;-0.60;99.90
7598;DHT22;3840;59.32098800;18.06423600;2022-12-18T02:49:42;-0.60;99.90
7598;DHT22;3840;59.32098800;18.06423600;2022-12-18T02:54:52;-0.60;99.90
7598;DHT22;3840;59.32098800;18.06423600;2022-12-18T03:00:14;-0.60;99.90
7598;DHT22;3840;59.32098800;18.06423600;2022-12-18T03:02:54;-0.60;99.90
7598;DHT22;3840;59.32098800;18.06423600;2022-12-18T03:05:38;-0.60;99.90
7598;DHT22;3840;59.32098800;18.06423600;2022-12-18T03:08:14;-0.70;99.90
7598;DHT22;3840;59.32098800;18.06423600;2022-12-18T03:10:51;-0.70;99.90
7598;DHT22;3840;59.32098800;18.06423600;2022-12-18T03:13:47;-0.50;99.90
7598;DHT22;3840;59.32098800;18.06423600;2022-12-18T03:16:25;-0.70;99.90
7598;DHT22;3840;59.32098800;18.06423600;2022-12-18T03:18:56;-0.50;99.90
7598;DHT22;3840;59.32098800;18.06423600;2022-12-18T03:21:36;-0.70;99.90
7598;DHT22;3840;59.32098800;18.06423600;2022-12-18T03:24:06;-0.70;99.90
7598;DHT22;3840;59.32098800;18.06423600;2022-12-18T03:26:32;-0.60;99.90
7598;DHT22;3840;59.32098800;18.06423600;2022-12-18T03:29:05;-0.70;99.90
7598;DHT22;3840;59.32098800;18.06423600;2022-12-18T03:31:40;-0.60;99.90
7598;DHT22;3840;59.32098800;18.06423600;2022-12-18T03:34:14;-0.60;99.90
7598;DHT22;3840;59.32098800;18.06423600;2022-12-18T03:36:40;-0.60;99.90
7598;DHT22;3840;59.32098800;18.06423600;2022-12-18T03:39:06;-0.70;99.90
7598;DHT22;3840;59.32098800;18.06423600;2022-12-18T03:41:37;-0.60;99.90
7598;DHT22;3840;59.32098800;18.06423600;2022-12-18T03:47:16;-0.50;99.90
7598;DHT22;3840;59.32098800;18.06423600;2022-12-18T03:53:15;-0.70;99.90
7598;DHT22;3840;59.32098800;18.06423600;2022-12-18T03:55:43;-0.60;99.90
7598;DHT22;3840;59.32098800;18.06423600;2022-12-18T03:58:15;-0.70;99.90
7598;DHT22;3840;59.32098800;18.06423600;2022-12-18T04:00:42;-0.70;99.90
7598;DHT22;3840;59.32098800;18.06423600;2022-12-18T04:03:09;-0.70;99.90
7598;DHT22;3840;59.32098800;18.06423600;2022-12-18T04:05:36;-0.70;99.90
7598;DHT22;3840;59.32098800;18.06423600;2022-12-18T04:08:03;-0.70;99.90
7598;DHT22;3840;59.32098800;18.06423600;2022-12-18T04:10:29;-0.60;99.90
7598;DHT22;3840;59.32098800;18.06423600;2022-12-18T04:12:56;-0.70;99.90
7598;DHT22;3840;59.32098800;18.06423600;2022-12-18T04:15:23;-0.60;99.90
7598;DHT22;3840;59.32098800;18.06423600;2022-12-18T04:17:49;-0.70;99.90
7598;DHT22;3840;59.32098800;18.06423600;2022-12-18T04:20:16;-0.50;99.90
7598;DHT22;3840;59.32098800;18.06423600;2022-12-18T04:22:42;-0.80;99.90
7598;DHT22;3840;59.32098800;18.06423600;2022-12-18T04:25:11;-0.70;99.90
7598;DHT22;3840;59.32098800;18.06423600;2022-12-18T04:27:36;-0.70;99.90
7598;DHT22;3840;59.32098800;18.06423600;2022-12-18T04:30:03;-0.60;99.90
7598;DHT22;3840;59.32098800;18.06423600;2022-12-18T04:32:28;-0.60;99.90
7598;DHT22;3840;59.32098800;18.06423600;2022-12-18T04:34:54;-0.70;99.90
7598;DHT22;3840;59.32098800;18.06423600;2022-12-18T04:37:20;-0.80;99.90
7598;DHT22;3840;59.32098800;18.06423600;2022-12-18T04:39:45;-0.70;99.90
7598;DHT22;3840;59.32098800;18.06423600;2022-12-18T04:42:11;-0.70;99.90
7598;DHT22;3840;59.32098800;18.06423600;2022-12-18T04:44:37;-0.70;99.90
7598;DHT22;3840;59.32098800;18.06423600;2022-12-18T04:47:03;-0.70;99.90
7598;DHT22;3840;59.32098800;18.06423600;2022-12-18T04:49:28;-0.70;99.90
7598;DHT22;3840;59.32098800;18.06423600;2022-12-18T04:51:54;-0.80;99.90
7598;DHT22;3840;59.32098800;18.06423600;2022-12-18T04:54:20;-0.70;99.90
7598;DHT22;3840;59.32098800;18.06423600;2022-12-18T04:56:46;-0.80;99.90
7598;DHT22;3840;59.32098800;18.06423600;2022-12-18T04:59:11;-0.80;99.90
7598;DHT22;3840;59.32098800;18.06423600;2022-12-18T05:01:37;-0.80;99.90
7598;DHT22;3840;59.32098800;18.06423600;2022-12-18T05:04:03;-0.80;99.90
7598;DHT22;3840;59.32098800;18.06423600;2022-12-18T05:06:29;-0.80;99.90
7598;DHT22;3840;59.32098800;18.06423600;2022-12-18T05:08:55;-0.80;99.90
7598;DHT22;3840;59.32098800;18.06423600;2022-12-18T05:11:20;-0.70;99.90
7598;DHT22;3840;59.32098800;18.06423600;2022-12-18T05:13:46;-0.70;99.90
7598;DHT22;3840;59.32098800;18.06423600;2022-12-18T05:16:13;-0.70;99.90
7598;DHT22;3840;59.32098800;18.06423600;2022-12-18T05:18:39;-0.70;99.90
7598;DHT22;3840;59.32098800;18.06423600;2022-12-18T05:21:05;-0.50;99.90
7598;DHT22;3840;59.32098800;18.06423600;2022-12-18T05:23:34;-0.80;99.90
7598;DHT22;3840;59.32098800;18.06423600;2022-12-18T05:26:02;-0.80;99.90
7598;DHT22;3840;59.32098800;18.06423600;2022-12-18T05:28:29;-0.70;99.90
7598;DHT22;3840;59.32098800;18.06423600;2022-12-18T05:30:57;-0.70;99.90
7598;DHT22;3840;59.32098800;18.06423600;2022-12-18T05:33:25;-0.70;99.90
7598;DHT22;3840;59.32098800;18.06423600;2022-12-18T05:35:52;-0.70;99.90
7598;DHT22;3840;59.32098800;18.06423600;2022-12-18T05:38:19;-0.80;99.90
7598;DHT22;3840;59.32098800;18.06423600;2022-12-18T05:40:46;-0.70;99.90
7598;DHT22;3840;59.32098800;18.06423600;2022-12-18T05:43:12;-0.70;99.90
7598;DHT22;3840;59.32098800;18.06423600;2022-12-18T05:45:38;-0.70;99.90
7598;DHT22;3840;59.32098800;18.06423600;2022-12-18T05:48:06;-0.60;99.90
7598;DHT22;3840;59.32098800;18.06423600;2022-12-18T05:50:39;-0.60;99.90
7598;DHT22;3840;59.32098800;18.06423600;2022-12-18T05:53:06;-0.60;99.90
7598;DHT22;3840;59.32098800;18.06423600;2022-12-18T05:55:36;-0.60;99.90
7598;DHT22;3840;59.32098800;18.06423600;2022-12-18T05:58:04;-0.60;99.90
7598;DHT22;3840;59.32098800;18.06423600;2022-12-18T06:00:30;-0.40;99.90
7598;DHT22;3840;59.32098800;18.06423600;2022-12-18T06:02:57;-0.50;99.90
7598;DHT22;3840;59.32098800;18.06423600;2022-12-18T06:05:23;-0.50;99.90
7598;DHT22;3840;59.32098800;18.06423600;2022-12-18T06:07:48;-0.50;99.90
7598;DHT22;3840;59.32098800;18.06423600;2022-12-18T06:10:14;-0.40;99.90
7598;DHT22;3840;59.32098800;18.06423600;2022-12-18T06:12:40;-0.50;99.90
7598;DHT22;3840;59.32098800;18.06423600;2022-12-18T06:15:06;-0.60;99.90
7598;DHT22;3840;59.32098800;18.06423600;2022-12-18T06:17:33;-0.50;99.90
7598;DHT22;3840;59.32098800;18.06423600;2022-12-18T06:19:58;-0.30;99.90
7598;DHT22;3840;59.32098800;18.06423600;2022-12-18T06:22:25;-0.50;99.90
7598;DHT22;3840;59.32098800;18.06423600;2022-12-18T06:24:50;-0.60;99.90
7598;DHT22;3840;59.32098800;18.06423600;2022-12-18T06:27:16;-0.50;99.90
7598;DHT22;3840;59.32098800;18.06423600;2022-12-18T06:29:43;-0.30;99.90
7598;DHT22;3840;59.32098800;18.06423600;2022-12-18T06:32:09;-0.50;99.90
7598;DHT22;3840;59.32098800;18.06423600;2022-12-18T06:34:37;-0.50;99.90
7598;DHT22;3840;59.32098800;18.06423600;2022-12-18T06:37:03;-0.40;99.90
7598;DHT22;3840;59.32098800;18.06423600;2022-12-18T06:39:29;-0.40;99.90
7598;DHT22;3840;59.32098800;18.06423600;2022-12-18T06:41:55;-0.50;99.90
7598;DHT22;3840;59.32098800;18.06423600;2022-12-18T06:44:21;-0.40;99.90
7598;DHT22;3840;59.32098800;18.06423600;2022-12-18T06:46:46;-0.40;99.90
7598;DHT22;3840;59.32098800;18.06423600;2022-12-18T06:49:12;-0.40;99.90
7598;DHT22;3840;59.32098800;18.06423600;2022-12-18T06:51:38;-0.40;99.90
7598;DHT22;3840;59.32098800;18.06423600;2022-12-18T06:54:04;-0.40;99.90
7598;DHT22;3840;59.32098800;18.06423600;2022-12-18T06:56:30;-0.30;99.90
7598;DHT22;3840;59.32098800;18.06423600;2022-12-18T06:58:56;-0.30;99.90
7598;DHT22;3840;59.32098800;18.06423600;2022-12-18T07:01:22;-0.20;99.90
7598;DHT22;3840;59.32098800;18.06423600;2022-12-18T07:03:52;-0.20;99.90
7598;DHT22;3840;59.32098800;18.06423600;2022-12-18T07:06:20;-0.20;99.90
7598;DHT22;3840;59.32098800;18.06423600;2022-12-18T07:08:46;-0.20;99.90
7598;DHT22;3840;59.32098800;18.06423600;2022-12-18T07:11:13;-0.20;99.90
7598;DHT22;3840;59.32098800;18.06423600;2022-12-18T07:13:39;-0.20;99.90
7598;DHT22;3840;59.32098800;18.06423600;2022-12-18T07:16:07;-0.20;99.90
7598;DHT22;3840;59.32098800;18.06423600;2022-12-18T07:18:33;-0.20;99.90
7598;DHT22;3840;59.32098800;18.06423600;2022-12-18T07:21:03;-0.10;99.90
7598;DHT22;3840;59.32098800;18.06423600;2022-12-18T07:23:30;-0.10;99.90
7598;DHT22;3840;59.32098800;18.06423600;2022-12-18T07:26:01;0.00;99.90
7598;DHT22;3840;59.32098800;18.06423600;2022-12-18T07:28:27;0.20;99.90
7598;DHT22;3840;59.32098800;18.06423600;2022-12-18T07:30:53;0.00;99.90
7598;DHT22;3840;59.32098800;18.06423600;2022-12-18T07:33:19;0.10;99.90
7598;DHT22;3840;59.32098800;18.06423600;2022-12-18T07:35:44;0.10;99.90
7598;DHT22;3840;59.32098800;18.06423600;2022-12-18T07:38:10;0.10;99.90
7598;DHT22;3840;59.32098800;18.06423600;2022-12-18T07:40:37;0.10;99.90
7598;DHT22;3840;59.32098800;18.06423600;2022-12-18T07:43:03;0.20;99.90
7598;DHT22;3840;59.32098800;18.06423600;2022-12-18T07:45:30;0.30;99.90
7598;DHT22;3840;59.32098800;18.06423600;2022-12-18T07:47:55;0.30;99.90
7598;DHT22;3840;59.32098800;18.06423600;2022-12-18T07:50:21;0.30;99.90
7598;DHT22;3840;59.32098800;18.06423600;2022-12-18T07:52:47;0.40;99.90
7598;DHT22;3840;59.32098800;18.06423600;2022-12-18T07:55:13;0.30;99.90
7598;DHT22;3840;59.32098800;18.06423600;2022-12-18T07:57:38;0.40;99.90
7598;DHT22;3840;59.32098800;18.06423600;2022-12-18T08:00:04;0.40;99.90
7598;DHT22;3840;59.32098800;18.06423600;2022-12-18T08:02:31;0.40;99.90
7598;DHT22;3840;59.32098800;18.06423600;2022-12-18T08:04:57;0.40;99.90
7598;DHT22;3840;59.32098800;18.06423600;2022-12-18T08:07:23;0.40;99.90
7598;DHT22;3840;59.32098800;18.06423600;2022-12-18T08:09:49;0.40;99.90
7598;DHT22;3840;59.32098800;18.06423600;2022-12-18T08:12:14;0.40;99.90
7598;DHT22;3840;59.32098800;18.06423600;2022-12-18T08:14:40;0.40;99.90
7598;DHT22;3840;59.32098800;18.06423600;2022-12-18T08:17:06;0.40;99.90
7598;DHT22;3840;59.32098800;18.06423600;2022-12-18T08:19:32;0.40;99.90
7598;DHT22;3840;59.32098800;18.06423600;2022-12-18T08:21:58;0.40;99.90
7598;DHT22;3840;59.32098800;18.06423600;2022-12-18T08:24:24;0.50;99.90
7598;DHT22;3840;59.32098800;18.06423600;2022-12-18T08:26:49;0.50;99.90
7598;DHT22;3840;59.32098800;18.06423600;2022-12-18T08:29:16;0.50;99.90
7598;DHT22;3840;59.32098800;18.06423600;2022-12-18T08:31:41;0.50;99.90
7598;DHT22;3840;59.32098800;18.06423600;2022-12-18T08:34:08;0.50;99.90
7598;DHT22;3840;59.32098800;18.06423600;2022-12-18T08:36:33;0.60;99.90
7598;DHT22;3840;59.32098800;18.06423600;2022-12-18T08:38:59;0.70;99.90
7598;DHT22;3840;59.32098800;18.06423600;2022-12-18T08:41:25;0.60;99.90
7598;DHT22;3840;59.32098800;18.06423600;2022-12-18T08:43:51;0.70;99.90
7598;DHT22;3840;59.32098800;18.06423600;2022-12-18T08:46:40;0.70;99.90
7598;DHT22;3840;59.32098800;18.06423600;2022-12-18T08:49:07;0.70;99.90
7598;DHT22;3840;59.32098800;18.06423600;2022-12-18T08:51:33;0.70;99.90
7598;DHT22;3840;59.32098800;18.06423600;2022-12-18T08:53:59;0.80;99.90
7598;DHT22;3840;59.32098800;18.06423600;2022-12-18T08:56:25;0.80;99.90
7598;DHT22;3840;59.32098800;18.06423600;2022-12-18T08:58:52;0.90;99.90
7598;DHT22;3840;59.32098800;18.06423600;2022-12-18T09:01:18;0.90;99.90
7598;DHT22;3840;59.32098800;18.06423600;2022-12-18T09:03:44;1.00;99.90
7598;DHT22;3840;59.32098800;18.06423600;2022-12-18T09:06:13;1.00;99.90
7598;DHT22;3840;59.32098800;18.06423600;2022-12-18T09:08:39;1.00;99.90
7598;DHT22;3840;59.32098800;18.06423600;2022-12-18T09:11:21;1.10;99.90
7598;DHT22;3840;59.32098800;18.06423600;2022-12-18T09:13:47;1.00;99.90
7598;DHT22;3840;59.32098800;18.06423600;2022-12-18T09:16:15;1.10;99.90
7598;DHT22;3840;59.32098800;18.06423600;2022-12-18T09:18:41;1.10;99.90
7598;DHT22;3840;59.32098800;18.06423600;2022-12-18T09:21:15;1.20;99.90
7598;DHT22;3840;59.32098800;18.06423600;2022-12-18T09:23:42;1.20;99.90
7598;DHT22;3840;59.32098800;18.06423600;2022-12-18T09:26:08;1.30;99.90
7598;DHT22;3840;59.32098800;18.06423600;2022-12-18T09:28:34;1.40;99.90
7598;DHT22;3840;59.32098800;18.06423600;2022-12-18T09:31:07;1.40;99.90
7598;DHT22;3840;59.32098800;18.06423600;2022-12-18T09:33:34;1.40;99.90
7598;DHT22;3840;59.32098800;18.06423600;2022-12-18T09:36:01;1.60;99.90
7598;DHT22;3840;59.32098800;18.06423600;2022-12-18T09:38:28;1.60;99.90
7598;DHT22;3840;59.32098800;18.06423600;2022-12-18T09:40:57;1.60;99.90
7598;DHT22;3840;59.32098800;18.06423600;2022-12-18T09:43:35;1.70;99.90
7598;DHT22;3840;59.32098800;18.06423600;2022-12-18T09:46:06;1.70;99.90
7598;DHT22;3840;59.32098800;18.06423600;2022-12-18T09:48:35;1.70;99.90
7598;DHT22;3840;59.32098800;18.06423600;2022-12-18T09:51:17;1.70;99.90
7598;DHT22;3840;59.32098800;18.06423600;2022-12-18T09:53:50;1.70;99.90
7598;DHT22;3840;59.32098800;18.06423600;2022-12-18T09:56:19;1.80;99.90
7598;DHT22;3840;59.32098800;18.06423600;2022-12-18T09:58:55;1.80;99.90
7598;DHT22;3840;59.32098800;18.06423600;2022-12-18T10:01:23;1.80;99.90
7598;DHT22;3840;59.32098800;18.06423600;2022-12-18T10:03:50;1.80;99.90
7598;DHT22;3840;59.32098800;18.06423600;2022-12-18T10:06:48;1.90;99.90
7598;DHT22;3840;59.32098800;18.06423600;2022-12-18T10:12:05;2.00;99.90
7598;DHT22;3840;59.32098800;18.06423600;2022-12-18T10:14:50;1.90;99.90
7598;DHT22;3840;59.32098800;18.06423600;2022-12-18T10:17:35;1.80;99.90
7598;DHT22;3840;59.32098800;18.06423600;2022-12-18T10:20:29;1.90;99.90
7598;DHT22;3840;59.32098800;18.06423600;2022-12-18T10:23:15;2.00;99.90
7598;DHT22;3840;59.32098800;18.06423600;2022-12-18T10:28:25;2.00;99.90
7598;DHT22;3840;59.32098800;18.06423600;2022-12-18T10:30:51;2.00;99.90
7598;DHT22;3840;59.32098800;18.06423600;2022-12-18T10:33:20;2.00;99.90
7598;DHT22;3840;59.32098800;18.06423600;2022-12-18T10:35:48;2.10;99.90
7598;DHT22;3840;59.32098800;18.06423600;2022-12-18T10:41:05;2.10;99.90
7598;DHT22;3840;59.32098800;18.06423600;2022-12-18T10:43:34;2.00;99.90
7598;DHT22;3840;59.32098800;18.06423600;2022-12-18T10:51:06;2.10;99.90
7598;DHT22;3840;59.32098800;18.06423600;2022-12-18T10:53:34;2.10;99.90
7598;DHT22;3840;59.32098800;18.06423600;2022-12-18T10:56:03;2.00;99.90
7598;DHT22;3840;59.32098800;18.06423600;2022-12-18T10:58:31;2.10;99.90
7598;DHT22;3840;59.32098800;18.06423600;2022-12-18T11:01:16;2.10;99.90
7598;DHT22;3840;59.32098800;18.06423600;2022-12-18T11:03:46;2.20;99.90
7598;DHT22;3840;59.32098800;18.06423600;2022-12-18T11:06:24;2.00;99.90
7598;DHT22;3840;59.32098800;18.06423600;2022-12-18T11:09:20;2.20;99.90
7598;DHT22;3840;59.32098800;18.06423600;2022-12-18T11:11:51;2.00;99.90
7598;DHT22;3840;59.32098800;18.06423600;2022-12-18T11:16:50;2.10;99.90
7598;DHT22;3840;59.32098800;18.06423600;2022-12-18T11:21:47;2.00;99.90
7598;DHT22;3840;59.32098800;18.06423600;2022-12-18T11:24:34;2.00;99.90
7598;DHT22;3840;59.32098800;18.06423600;2022-12-18T11:27:05;2.10;99.90
7598;DHT22;3840;59.32098800;18.06423600;2022-12-18T11:29:37;2.10;99.90
7598;DHT22;3840;59.32098800;18.06423600;2022-12-18T11:32:30;2.10;99.90
7598;DHT22;3840;59.32098800;18.06423600;2022-12-18T11:38:02;2.10;99.90
7598;DHT22;3840;59.32098800;18.06423600;2022-12-18T11:40:34;2.10;99.90
7598;DHT22;3840;59.32098800;18.06423600;2022-12-18T11:43:13;2.10;99.90
7598;DHT22;3840;59.32098800;18.06423600;2022-12-18T11:46:00;2.10;99.90
7598;DHT22;3840;59.32098800;18.06423600;2022-12-18T11:51:00;2.10;99.90
7598;DHT22;3840;59.32098800;18.06423600;2022-12-18T11:53:29;2.10;99.90
7598;DHT22;3840;59.32098800;18.06423600;2022-12-18T11:56:26;2.10;99.90
7598;DHT22;3840;59.32098800;18.06423600;2022-12-18T12:09:20;2.20;99.90
7598;DHT22;3840;59.32098800;18.06423600;2022-12-18T12:14:52;2.20;99.90
7598;DHT22;3840;59.32098800;18.06423600;2022-12-18T12:23:05;2.10;99.90
7598;DHT22;3840;59.32098800;18.06423600;2022-12-18T12:30:55;2.10;99.90
7598;DHT22;3840;59.32098800;18.06423600;2022-12-18T12:39:31;2.20;99.90
7598;DHT22;3840;59.32098800;18.06423600;2022-12-18T12:41:58;2.20;99.90
7598;DHT22;3840;59.32098800;18.06423600;2022-12-18T12:44:49;2.20;99.90
7598;DHT22;3840;59.32098800;18.06423600;2022-12-18T12:47:32;2.20;99.90
7598;DHT22;3840;59.32098800;18.06423600;2022-12-18T12:50:01;2.20;99.90
7598;DHT22;3840;59.32098800;18.06423600;2022-12-18T12:52:32;2.20;99.90
7598;DHT22;3840;59.32098800;18.06423600;2022-12-18T12:55:00;2.20;99.90
7598;DHT22;3840;59.32098800;18.06423600;2022-12-18T12:57:34;2.20;99.90
7598;DHT22;3840;59.32098800;18.06423600;2022-12-18T13:00:18;2.30;99.90
7598;DHT22;3840;59.32098800;18.06423600;2022-12-18T13:10:49;2.40;99.90
7598;DHT22;3840;59.32098800;18.06423600;2022-12-18T13:16:19;2.50;99.90
7598;DHT22;3840;59.32098800;18.06423600;2022-12-18T13:18:55;2.50;99.90
7598;DHT22;3840;59.32098800;18.06423600;2022-12-18T13:21:28;2.50;99.90
7598;DHT22;3840;59.32098800;18.06423600;2022-12-18T13:23:55;2.50;99.90
7598;DHT22;3840;59.32098800;18.06423600;2022-12-18T13:28:52;2.50;99.90
7598;DHT22;3840;59.32098800;18.06423600;2022-12-18T13:36:43;2.60;99.90
7598;DHT22;3840;59.32098800;18.06423600;2022-12-18T13:41:46;2.60;99.90
7598;DHT22;3840;59.32098800;18.06423600;2022-12-18T13:46:55;2.50;99.90
7598;DHT22;3840;59.32098800;18.06423600;2022-12-18T13:51:59;2.40;99.90
7598;DHT22;3840;59.32098800;18.06423600;2022-12-18T13:56:53;2.30;99.90
7598;DHT22;3840;59.32098800;18.06423600;2022-12-18T13:59:32;2.30;99.90
7598;DHT22;3840;59.32098800;18.06423600;2022-12-18T14:02:00;2.30;99.90
7598;DHT22;3840;59.32098800;18.06423600;2022-12-18T14:04:27;2.40;99.90
7598;DHT22;3840;59.32098800;18.06423600;2022-12-18T14:07:03;2.50;99.90
7598;DHT22;3840;59.32098800;18.06423600;2022-12-18T14:09:34;2.50;99.90
7598;DHT22;3840;59.32098800;18.06423600;2022-12-18T14:12:00;2.50;99.90
7598;DHT22;3840;59.32098800;18.06423600;2022-12-18T14:14:47;2.50;99.90
7598;DHT22;3840;59.32098800;18.06423600;2022-12-18T14:17:15;2.50;99.90
7598;DHT22;3840;59.32098800;18.06423600;2022-12-18T14:19:45;2.50;99.90
7598;DHT22;3840;59.32098800;18.06423600;2022-12-18T14:22:17;2.40;99.90
7598;DHT22;3840;59.32098800;18.06423600;2022-12-18T14:24:43;2.50;99.90
7598;DHT22;3840;59.32098800;18.06423600;2022-12-18T14:27:23;2.50;99.90
7598;DHT22;3840;59.32098800;18.06423600;2022-12-18T14:29:49;2.50;99.90
7598;DHT22;3840;59.32098800;18.06423600;2022-12-18T14:32:18;2.50;99.90
7598;DHT22;3840;59.32098800;18.06423600;2022-12-18T14:34:49;2.50;99.90
7598;DHT22;3840;59.32098800;18.06423600;2022-12-18T14:37:20;2.60;99.90
7598;DHT22;3840;59.32098800;18.06423600;2022-12-18T14:39:58;2.60;99.90
7598;DHT22;3840;59.32098800;18.06423600;2022-12-18T14:42:25;2.60;99.90
7598;DHT22;3840;59.32098800;18.06423600;2022-12-18T14:47:58;2.70;99.90
7598;DHT22;3840;59.32098800;18.06423600;2022-12-18T14:50:24;2.70;99.90
7598;DHT22;3840;59.32098800;18.06423600;2022-12-18T14:52:50;2.60;99.90
7598;DHT22;3840;59.32098800;18.06423600;2022-12-18T14:55:18;2.60;99.90
7598;DHT22;3840;59.32098800;18.06423600;2022-12-18T14:57:45;2.60;99.90
7598;DHT22;3840;59.32098800;18.06423600;2022-12-18T15:00:22;2.60;99.90
7598;DHT22;3840;59.32098800;18.06423600;2022-12-18T15:02:54;2.60;99.90
7598;DHT22;3840;59.32098800;18.06423600;2022-12-18T15:05:30;2.60;99.90
7598;DHT22;3840;59.32098800;18.06423600;2022-12-18T15:07:59;2.60;99.90
7598;DHT22;3840;59.32098800;18.06423600;2022-12-18T15:10:34;2.50;99.90
7598;DHT22;3840;59.32098800;18.06423600;2022-12-18T15:20:59;2.30;99.90
7598;DHT22;3840;59.32098800;18.06423600;2022-12-18T15:23:45;2.30;99.90
7598;DHT22;3840;59.32098800;18.06423600;2022-12-18T15:26:13;2.30;99.90
7598;DHT22;3840;59.32098800;18.06423600;2022-12-18T15:28:47;2.30;99.90
7598;DHT22;3840;59.32098800;18.06423600;2022-12-18T15:33:45;2.30;99.90
7598;DHT22;3840;59.32098800;18.06423600;2022-12-18T15:36:14;2.30;99.90
7598;DHT22;3840;59.32098800;18.06423600;2022-12-18T15:38:40;2.40;99.90
7598;DHT22;3840;59.32098800;18.06423600;2022-12-18T15:41:05;2.40;99.90
7598;DHT22;3840;59.32098800;18.06423600;2022-12-18T15:43:37;2.40;99.90
7598;DHT22;3840;59.32098800;18.06423600;2022-12-18T15:46:15;2.50;99.90
7598;DHT22;3840;59.32098800;18.06423600;2022-12-18T15:48:45;2.50;99.90
7598;DHT22;3840;59.32098800;18.06423600;2022-12-18T15:51:22;2.60;99.90
7598;DHT22;3840;59.32098800;18.06423600;2022-12-18T15:53:51;2.60;99.90
7598;DHT22;3840;59.32098800;18.06423600;2022-12-18T15:56:18;2.60;99.90